sensor_id;sensor_type;location;lat;lon;timestamp;P1;durP1;ratioP1;P2;durP2;ratioP2
20000;SDS011;10161;41.188;-8.642;2023-12-28T00:01:45;10.33;;;9.23;;
20000;SDS011;10161;41.188;-8.642;2023-12-28T00:04:12;10.47;;;9.47;;
20000;SDS011;10161;41.188;-8.642;2023-12-28T00:06:39;10.03;;;9.13;;
20000;SDS011;10161;41.188;-8.642;2023-12-28T00:09:07;9.93;;;9.03;;
20000;SDS011;10161;41.188;-8.642;2023-12-28T00:11:35;10.70;;;9.60;;
20000;SDS011;10161;41.188;-8.642;2023-12-28T00:14:02;8.87;;;8.10;;
20000;SDS011;10161;41.188;-8.642;2023-12-28T00:16:30;10.43;;;9.03;;
20000;SDS011;10161;41.188;-8.642;2023-12-28T00:18:57;10.13;;;9.13;;
20000;SDS011;10161;41.188;-8.642;2023-12-28T00:21:25;9.23;;;8.10;;
20000;SDS011;10161;41.188;-8.642;2023-12-28T00:23:52;9.60;;;8.60;;
20000;SDS011;10161;41.188;-8.642;2023-12-28T00:26:20;9.70;;;8.70;;
20000;SDS011;10161;41.188;-8.642;2023-12-28T00:28:47;9.70;;;8.80;;
20000;SDS011;10161;41.188;-8.642;2023-12-28T00:31:14;9.73;;;8.77;;
20000;SDS011;10161;41.188;-8.642;2023-12-28T00:33:41;9.30;;;8.40;;
20000;SDS011;10161;41.188;-8.642;2023-12-28T00:36:07;9.27;;;8.37;;
20000;SDS011;10161;41.188;-8.642;2023-12-28T00:38:34;9.17;;;8.27;;
20000;SDS011;10161;41.188;-8.642;2023-12-28T00:41:01;9.17;;;8.30;;
20000;SDS011;10161;41.188;-8.642;2023-12-28T00:43:30;9.57;;;8.67;;
20000;SDS011;10161;41.188;-8.642;2023-12-28T00:45:57;10.40;;;8.40;;
20000;SDS011;10161;41.188;-8.642;2023-12-28T00:48:24;8.13;;;7.40;;
20000;SDS011;10161;41.188;-8.642;2023-12-28T00:50:50;8.90;;;8.00;;
20000;SDS011;10161;41.188;-8.642;2023-12-28T00:53:17;8.13;;;7.43;;
20000;SDS011;10161;41.188;-8.642;2023-12-28T00:55:45;9.00;;;8.10;;
20000;SDS011;10161;41.188;-8.642;2023-12-28T00:58:12;8.17;;;7.40;;
20000;SDS011;10161;41.188;-8.642;2023-12-28T01:00:40;8.80;;;7.90;;
20000;SDS011;10161;41.188;-8.642;2023-12-28T01:03:07;8.70;;;7.90;;
20000;SDS011;10161;41.188;-8.642;2023-12-28T01:05:34;8.40;;;7.60;;
20000;SDS011;10161;41.188;-8.642;2023-12-28T01:08:00;8.17;;;7.40;;
20000;SDS011;10161;41.188;-8.642;2023-12-28T01:10:27;8.23;;;7.40;;
20000;SDS011;10161;41.188;-8.642;2023-12-28T01:12:54;7.33;;;6.63;;
20000;SDS011;10161;41.188;-8.642;2023-12-28T01:15:21;8.30;;;7.50;;
20000;SDS011;10161;41.188;-8.642;2023-12-28T01:17:49;8.20;;;7.40;;
20000;SDS011;10161;41.188;-8.642;2023-12-28T01:20:16;7.70;;;7.00;;
20000;SDS011;10161;41.188;-8.642;2023-12-28T01:22:43;8.00;;;7.20;;
20000;SDS011;10161;41.188;-8.642;2023-12-28T01:25:10;9.20;;;8.30;;
20000;SDS011;10161;41.188;-8.642;2023-12-28T01:27:37;8.10;;;7.30;;
20000;SDS011;10161;41.188;-8.642;2023-12-28T01:30:04;7.83;;;7.13;;
20000;SDS011;10161;41.188;-8.642;2023-12-28T01:32:32;7.20;;;6.50;;
20000;SDS011;10161;41.188;-8.642;2023-12-28T01:35:01;7.30;;;6.60;;
20000;SDS011;10161;41.188;-8.642;2023-12-28T01:37:28;6.87;;;6.27;;
20000;SDS011;10161;41.188;-8.642;2023-12-28T01:39:58;8.00;;;7.20;;
20000;SDS011;10161;41.188;-8.642;2023-12-28T01:42:25;6.93;;;6.33;;
20000;SDS011;10161;41.188;-8.642;2023-12-28T01:44:55;7.30;;;6.60;;
20000;SDS011;10161;41.188;-8.642;2023-12-28T01:47:22;7.30;;;6.60;;
20000;SDS011;10161;41.188;-8.642;2023-12-28T01:49:49;7.90;;;7.10;;
20000;SDS011;10161;41.188;-8.642;2023-12-28T01:52:17;7.23;;;6.53;;
20000;SDS011;10161;41.188;-8.642;2023-12-28T01:54:44;6.70;;;6.10;;
20000;SDS011;10161;41.188;-8.642;2023-12-28T01:57:11;7.20;;;6.50;;
20000;SDS011;10161;41.188;-8.642;2023-12-28T01:59:39;7.40;;;6.70;;
20000;SDS011;10161;41.188;-8.642;2023-12-28T02:02:07;6.90;;;6.30;;
20000;SDS011;10161;41.188;-8.642;2023-12-28T02:04:34;7.47;;;6.10;;
20000;SDS011;10161;41.188;-8.642;2023-12-28T02:07:01;6.43;;;5.83;;
20000;SDS011;10161;41.188;-8.642;2023-12-28T02:09:29;7.00;;;6.40;;
20000;SDS011;10161;41.188;-8.642;2023-12-28T02:11:57;7.60;;;6.23;;
20000;SDS011;10161;41.188;-8.642;2023-12-28T02:14:26;5.93;;;5.43;;
20000;SDS011;10161;41.188;-8.642;2023-12-28T02:16:54;6.20;;;5.60;;
20000;SDS011;10161;41.188;-8.642;2023-12-28T02:19:29;5.70;;;5.20;;
20000;SDS011;10161;41.188;-8.642;2023-12-28T02:21:58;6.23;;;5.63;;
20000;SDS011;10161;41.188;-8.642;2023-12-28T02:24:25;5.97;;;5.43;;
20000;SDS011;10161;41.188;-8.642;2023-12-28T02:26:54;6.57;;;5.97;;
20000;SDS011;10161;41.188;-8.642;2023-12-28T02:29:21;5.83;;;5.33;;
20000;SDS011;10161;41.188;-8.642;2023-12-28T02:31:49;6.43;;;5.83;;
20000;SDS011;10161;41.188;-8.642;2023-12-28T02:34:28;5.77;;;5.27;;
20000;SDS011;10161;41.188;-8.642;2023-12-28T02:36:56;6.90;;;6.30;;
20000;SDS011;10161;41.188;-8.642;2023-12-28T02:39:24;6.10;;;5.50;;
20000;SDS011;10161;41.188;-8.642;2023-12-28T02:41:51;5.60;;;5.10;;
20000;SDS011;10161;41.188;-8.642;2023-12-28T02:44:21;5.70;;;5.20;;
20000;SDS011;10161;41.188;-8.642;2023-12-28T02:46:49;5.37;;;4.87;;
20000;SDS011;10161;41.188;-8.642;2023-12-28T02:49:16;5.43;;;4.93;;
20000;SDS011;10161;41.188;-8.642;2023-12-28T02:51:43;6.30;;;5.70;;
20000;SDS011;10161;41.188;-8.642;2023-12-28T02:54:10;6.20;;;5.60;;
20000;SDS011;10161;41.188;-8.642;2023-12-28T02:56:39;5.50;;;5.00;;
20000;SDS011;10161;41.188;-8.642;2023-12-28T02:59:06;6.00;;;5.40;;
20000;SDS011;10161;41.188;-8.642;2023-12-28T03:01:34;6.53;;;5.87;;
20000;SDS011;10161;41.188;-8.642;2023-12-28T03:04:01;5.30;;;4.80;;
20000;SDS011;10161;41.188;-8.642;2023-12-28T03:06:28;5.60;;;5.10;;
20000;SDS011;10161;41.188;-8.642;2023-12-28T03:08:55;5.97;;;5.37;;
20000;SDS011;10161;41.188;-8.642;2023-12-28T03:11:22;5.20;;;4.70;;
20000;SDS011;10161;41.188;-8.642;2023-12-28T03:13:48;4.83;;;4.43;;
20000;SDS011;10161;41.188;-8.642;2023-12-28T03:16:15;4.80;;;4.37;;
20000;SDS011;10161;41.188;-8.642;2023-12-28T03:18:44;5.60;;;5.10;;
20000;SDS011;10161;41.188;-8.642;2023-12-28T03:21:11;5.10;;;4.70;;
20000;SDS011;10161;41.188;-8.642;2023-12-28T03:23:38;5.50;;;5.03;;
20000;SDS011;10161;41.188;-8.642;2023-12-28T03:26:05;5.60;;;5.10;;
20000;SDS011;10161;41.188;-8.642;2023-12-28T03:28:31;4.77;;;4.27;;
20000;SDS011;10161;41.188;-8.642;2023-12-28T03:30:58;5.43;;;4.93;;
20000;SDS011;10161;41.188;-8.642;2023-12-28T03:33:28;4.53;;;4.13;;
20000;SDS011;10161;41.188;-8.642;2023-12-28T03:35:56;5.00;;;4.50;;
20000;SDS011;10161;41.188;-8.642;2023-12-28T03:38:23;5.00;;;4.53;;
20000;SDS011;10161;41.188;-8.642;2023-12-28T03:40:50;4.37;;;4.03;;
20000;SDS011;10161;41.188;-8.642;2023-12-28T03:43:17;5.73;;;5.20;;
20000;SDS011;10161;41.188;-8.642;2023-12-28T03:45:44;4.70;;;4.30;;
20000;SDS011;10161;41.188;-8.642;2023-12-28T03:48:11;4.50;;;4.10;;
20000;SDS011;10161;41.188;-8.642;2023-12-28T03:50:38;5.00;;;4.50;;
20000;SDS011;10161;41.188;-8.642;2023-12-28T03:53:06;5.27;;;4.87;;
20000;SDS011;10161;41.188;-8.642;2023-12-28T03:55:33;4.90;;;4.40;;
20000;SDS011;10161;41.188;-8.642;2023-12-28T03:58:00;4.57;;;4.17;;
20000;SDS011;10161;41.188;-8.642;2023-12-28T04:00:27;4.97;;;4.57;;
20000;SDS011;10161;41.188;-8.642;2023-12-28T04:02:54;4.37;;;3.97;;
20000;SDS011;10161;41.188;-8.642;2023-12-28T04:05:23;4.50;;;4.07;;
20000;SDS011;10161;41.188;-8.642;2023-12-28T04:07:50;4.40;;;4.00;;
20000;SDS011;10161;41.188;-8.642;2023-12-28T04:10:27;4.57;;;4.17;;
20000;SDS011;10161;41.188;-8.642;2023-12-28T04:12:55;4.33;;;3.93;;
20000;SDS011;10161;41.188;-8.642;2023-12-28T04:15:22;4.90;;;4.03;;
20000;SDS011;10161;41.188;-8.642;2023-12-28T04:17:49;4.30;;;3.90;;
20000;SDS011;10161;41.188;-8.642;2023-12-28T04:20:18;3.57;;;3.27;;
20000;SDS011;10161;41.188;-8.642;2023-12-28T04:22:45;4.07;;;3.67;;
20000;SDS011;10161;41.188;-8.642;2023-12-28T04:25:12;3.90;;;3.60;;
20000;SDS011;10161;41.188;-8.642;2023-12-28T04:27:42;3.97;;;3.67;;
20000;SDS011;10161;41.188;-8.642;2023-12-28T04:30:11;3.97;;;3.63;;
20000;SDS011;10161;41.188;-8.642;2023-12-28T04:32:39;5.10;;;3.80;;
20000;SDS011;10161;41.188;-8.642;2023-12-28T04:35:06;4.20;;;3.80;;
20000;SDS011;10161;41.188;-8.642;2023-12-28T04:37:33;4.20;;;3.80;;
20000;SDS011;10161;41.188;-8.642;2023-12-28T04:40:00;4.10;;;3.70;;
20000;SDS011;10161;41.188;-8.642;2023-12-28T04:42:28;3.60;;;3.30;;
20000;SDS011;10161;41.188;-8.642;2023-12-28T04:44:57;3.50;;;3.20;;
20000;SDS011;10161;41.188;-8.642;2023-12-28T04:47:24;4.00;;;3.70;;
20000;SDS011;10161;41.188;-8.642;2023-12-28T04:49:50;3.60;;;3.30;;
20000;SDS011;10161;41.188;-8.642;2023-12-28T04:52:17;3.60;;;3.30;;
20000;SDS011;10161;41.188;-8.642;2023-12-28T04:54:44;3.80;;;3.50;;
20000;SDS011;10161;41.188;-8.642;2023-12-28T04:57:11;3.73;;;3.43;;
20000;SDS011;10161;41.188;-8.642;2023-12-28T04:59:38;3.97;;;3.57;;
20000;SDS011;10161;41.188;-8.642;2023-12-28T05:02:07;4.23;;;3.83;;
20000;SDS011;10161;41.188;-8.642;2023-12-28T05:04:36;4.07;;;3.60;;
20000;SDS011;10161;41.188;-8.642;2023-12-28T05:07:03;4.10;;;3.70;;
20000;SDS011;10161;41.188;-8.642;2023-12-28T05:09:30;4.03;;;3.63;;
20000;SDS011;10161;41.188;-8.642;2023-12-28T05:11:57;4.00;;;3.70;;
20000;SDS011;10161;41.188;-8.642;2023-12-28T05:14:24;3.57;;;3.27;;
20000;SDS011;10161;41.188;-8.642;2023-12-28T05:16:51;3.20;;;2.90;;
20000;SDS011;10161;41.188;-8.642;2023-12-28T05:19:20;3.80;;;3.50;;
20000;SDS011;10161;41.188;-8.642;2023-12-28T05:21:47;3.20;;;2.97;;
20000;SDS011;10161;41.188;-8.642;2023-12-28T05:24:13;3.47;;;3.17;;
20000;SDS011;10161;41.188;-8.642;2023-12-28T05:26:41;2.80;;;2.60;;
20000;SDS011;10161;41.188;-8.642;2023-12-28T05:29:08;3.47;;;3.17;;
20000;SDS011;10161;41.188;-8.642;2023-12-28T05:31:35;3.53;;;3.23;;
20000;SDS011;10161;41.188;-8.642;2023-12-28T05:34:01;3.50;;;3.20;;
20000;SDS011;10161;41.188;-8.642;2023-12-28T05:36:31;3.07;;;2.87;;
20000;SDS011;10161;41.188;-8.642;2023-12-28T05:38:58;3.60;;;3.30;;
20000;SDS011;10161;41.188;-8.642;2023-12-28T05:41:25;3.57;;;3.27;;
20000;SDS011;10161;41.188;-8.642;2023-12-28T05:43:52;3.20;;;2.90;;
20000;SDS011;10161;41.188;-8.642;2023-12-28T05:46:19;3.33;;;3.03;;
20000;SDS011;10161;41.188;-8.642;2023-12-28T05:48:46;3.37;;;3.07;;
20000;SDS011;10161;41.188;-8.642;2023-12-28T05:51:13;2.70;;;2.50;;
20000;SDS011;10161;41.188;-8.642;2023-12-28T05:53:41;3.20;;;2.90;;
20000;SDS011;10161;41.188;-8.642;2023-12-28T05:56:08;3.03;;;2.80;;
20000;SDS011;10161;41.188;-8.642;2023-12-28T05:58:35;3.10;;;2.80;;
20000;SDS011;10161;41.188;-8.642;2023-12-28T06:01:03;3.50;;;3.20;;
20000;SDS011;10161;41.188;-8.642;2023-12-28T06:03:31;2.70;;;2.50;;
20000;SDS011;10161;41.188;-8.642;2023-12-28T06:05:58;3.13;;;2.80;;
20000;SDS011;10161;41.188;-8.642;2023-12-28T06:08:25;3.00;;;2.73;;
20000;SDS011;10161;41.188;-8.642;2023-12-28T06:10:53;3.20;;;2.90;;
20000;SDS011;10161;41.188;-8.642;2023-12-28T06:13:20;2.83;;;2.63;;
20000;SDS011;10161;41.188;-8.642;2023-12-28T06:15:47;3.17;;;2.67;;
20000;SDS011;10161;41.188;-8.642;2023-12-28T06:18:14;3.23;;;3.00;;
20000;SDS011;10161;41.188;-8.642;2023-12-28T06:20:41;2.97;;;2.70;;
20000;SDS011;10161;41.188;-8.642;2023-12-28T06:23:08;2.90;;;2.70;;
20000;SDS011;10161;41.188;-8.642;2023-12-28T06:25:35;2.63;;;2.40;;
20000;SDS011;10161;41.188;-8.642;2023-12-28T06:28:03;3.40;;;3.10;;
20000;SDS011;10161;41.188;-8.642;2023-12-28T06:30:30;2.80;;;2.60;;
20000;SDS011;10161;41.188;-8.642;2023-12-28T06:32:57;2.77;;;2.50;;
20000;SDS011;10161;41.188;-8.642;2023-12-28T06:35:24;3.60;;;2.40;;
20000;SDS011;10161;41.188;-8.642;2023-12-28T06:37:51;2.60;;;2.40;;
20000;SDS011;10161;41.188;-8.642;2023-12-28T06:40:18;2.70;;;2.50;;
20000;SDS011;10161;41.188;-8.642;2023-12-28T06:42:45;3.10;;;2.47;;
20000;SDS011;10161;41.188;-8.642;2023-12-28T06:45:13;2.43;;;2.23;;
20000;SDS011;10161;41.188;-8.642;2023-12-28T06:47:41;2.83;;;2.53;;
20000;SDS011;10161;41.188;-8.642;2023-12-28T06:50:08;2.37;;;2.17;;
20000;SDS011;10161;41.188;-8.642;2023-12-28T06:52:35;2.50;;;2.30;;
20000;SDS011;10161;41.188;-8.642;2023-12-28T06:55:02;2.30;;;2.10;;
20000;SDS011;10161;41.188;-8.642;2023-12-28T06:57:29;2.70;;;2.50;;
20000;SDS011;10161;41.188;-8.642;2023-12-28T06:59:56;2.77;;;2.57;;
20000;SDS011;10161;41.188;-8.642;2023-12-28T07:02:26;2.80;;;2.60;;
20000;SDS011;10161;41.188;-8.642;2023-12-28T07:04:53;3.13;;;2.83;;
20000;SDS011;10161;41.188;-8.642;2023-12-28T07:07:20;3.50;;;3.13;;
20000;SDS011;10161;41.188;-8.642;2023-12-28T07:09:47;3.20;;;2.90;;
20000;SDS011;10161;41.188;-8.642;2023-12-28T07:12:14;3.00;;;2.80;;
20000;SDS011;10161;41.188;-8.642;2023-12-28T07:14:41;3.40;;;3.10;;
20000;SDS011;10161;41.188;-8.642;2023-12-28T07:17:08;3.57;;;3.23;;
20000;SDS011;10161;41.188;-8.642;2023-12-28T07:19:38;3.00;;;2.80;;
20000;SDS011;10161;41.188;-8.642;2023-12-28T07:22:05;3.17;;;2.87;;
20000;SDS011;10161;41.188;-8.642;2023-12-28T07:24:32;3.60;;;3.30;;
20000;SDS011;10161;41.188;-8.642;2023-12-28T07:26:59;3.50;;;3.20;;
20000;SDS011;10161;41.188;-8.642;2023-12-28T07:29:26;3.70;;;3.30;;
20000;SDS011;10161;41.188;-8.642;2023-12-28T07:31:53;3.67;;;3.37;;
20000;SDS011;10161;41.188;-8.642;2023-12-28T07:34:20;3.40;;;3.10;;
20000;SDS011;10161;41.188;-8.642;2023-12-28T07:36:48;3.80;;;3.40;;
20000;SDS011;10161;41.188;-8.642;2023-12-28T07:39:15;3.83;;;3.50;;
20000;SDS011;10161;41.188;-8.642;2023-12-28T07:41:42;3.80;;;3.50;;
20000;SDS011;10161;41.188;-8.642;2023-12-28T07:44:09;3.87;;;3.47;;
20000;SDS011;10161;41.188;-8.642;2023-12-28T07:46:36;3.83;;;3.37;;
20000;SDS011;10161;41.188;-8.642;2023-12-28T07:49:03;5.00;;;4.40;;
20000;SDS011;10161;41.188;-8.642;2023-12-28T07:51:30;3.63;;;3.33;;
20000;SDS011;10161;41.188;-8.642;2023-12-28T07:53:58;3.37;;;3.07;;
20000;SDS011;10161;41.188;-8.642;2023-12-28T07:56:25;4.37;;;3.27;;
20000;SDS011;10161;41.188;-8.642;2023-12-28T07:58:52;3.60;;;3.30;;
20000;SDS011;10161;41.188;-8.642;2023-12-28T08:01:19;3.80;;;3.50;;
20000;SDS011;10161;41.188;-8.642;2023-12-28T08:03:46;3.70;;;3.40;;
20000;SDS011;10161;41.188;-8.642;2023-12-28T08:06:13;3.50;;;3.20;;
20000;SDS011;10161;41.188;-8.642;2023-12-28T08:08:40;3.83;;;3.43;;
20000;SDS011;10161;41.188;-8.642;2023-12-28T08:11:08;3.27;;;2.97;;
20000;SDS011;10161;41.188;-8.642;2023-12-28T08:13:35;3.70;;;3.30;;
20000;SDS011;10161;41.188;-8.642;2023-12-28T08:16:02;3.13;;;2.83;;
20000;SDS011;10161;41.188;-8.642;2023-12-28T08:18:29;3.53;;;2.80;;
20000;SDS011;10161;41.188;-8.642;2023-12-28T08:20:55;3.30;;;3.00;;
20000;SDS011;10161;41.188;-8.642;2023-12-28T08:23:22;3.17;;;2.87;;
20000;SDS011;10161;41.188;-8.642;2023-12-28T08:25:49;2.70;;;2.50;;
20000;SDS011;10161;41.188;-8.642;2023-12-28T08:28:18;4.10;;;3.27;;
20000;SDS011;10161;41.188;-8.642;2023-12-28T08:30:45;3.00;;;2.63;;
20000;SDS011;10161;41.188;-8.642;2023-12-28T08:33:11;2.40;;;2.20;;
20000;SDS011;10161;41.188;-8.642;2023-12-28T08:35:38;2.87;;;2.67;;
20000;SDS011;10161;41.188;-8.642;2023-12-28T08:38:05;3.30;;;3.00;;
20000;SDS011;10161;41.188;-8.642;2023-12-28T08:40:33;2.60;;;2.40;;
20000;SDS011;10161;41.188;-8.642;2023-12-28T08:43:00;2.80;;;2.60;;
20000;SDS011;10161;41.188;-8.642;2023-12-28T08:45:28;2.60;;;2.40;;
20000;SDS011;10161;41.188;-8.642;2023-12-28T08:47:55;2.73;;;2.47;;
20000;SDS011;10161;41.188;-8.642;2023-12-28T08:50:22;2.73;;;2.47;;
20000;SDS011;10161;41.188;-8.642;2023-12-28T08:52:49;2.83;;;2.47;;
20000;SDS011;10161;41.188;-8.642;2023-12-28T08:55:16;2.57;;;2.30;;
20000;SDS011;10161;41.188;-8.642;2023-12-28T08:57:43;2.80;;;2.40;;
20000;SDS011;10161;41.188;-8.642;2023-12-28T09:00:10;3.77;;;2.20;;
20000;SDS011;10161;41.188;-8.642;2023-12-28T09:02:41;2.80;;;2.40;;
20000;SDS011;10161;41.188;-8.642;2023-12-28T09:05:08;2.57;;;2.37;;
20000;SDS011;10161;41.188;-8.642;2023-12-28T09:07:35;3.27;;;2.33;;
20000;SDS011;10161;41.188;-8.642;2023-12-28T09:10:08;2.10;;;1.90;;
20000;SDS011;10161;41.188;-8.642;2023-12-28T09:12:35;2.73;;;2.20;;
20000;SDS011;10161;41.188;-8.642;2023-12-28T09:15:03;2.30;;;2.10;;
20000;SDS011;10161;41.188;-8.642;2023-12-28T09:17:31;2.80;;;2.40;;
20000;SDS011;10161;41.188;-8.642;2023-12-28T09:19:59;2.87;;;2.67;;
20000;SDS011;10161;41.188;-8.642;2023-12-28T09:22:26;3.00;;;2.43;;
20000;SDS011;10161;41.188;-8.642;2023-12-28T09:24:53;2.30;;;2.10;;
20000;SDS011;10161;41.188;-8.642;2023-12-28T09:27:20;2.50;;;2.30;;
20000;SDS011;10161;41.188;-8.642;2023-12-28T09:29:47;3.00;;;2.47;;
20000;SDS011;10161;41.188;-8.642;2023-12-28T09:32:14;4.13;;;3.17;;
20000;SDS011;10161;41.188;-8.642;2023-12-28T09:34:42;3.90;;;3.50;;
20000;SDS011;10161;41.188;-8.642;2023-12-28T09:37:10;4.80;;;2.90;;
20000;SDS011;10161;41.188;-8.642;2023-12-28T09:39:37;4.10;;;3.23;;
20000;SDS011;10161;41.188;-8.642;2023-12-28T09:42:04;4.50;;;3.10;;
20000;SDS011;10161;41.188;-8.642;2023-12-28T09:44:36;5.97;;;4.70;;
20000;SDS011;10161;41.188;-8.642;2023-12-28T09:47:05;4.40;;;4.00;;
20000;SDS011;10161;41.188;-8.642;2023-12-28T09:49:32;4.33;;;3.93;;
20000;SDS011;10161;41.188;-8.642;2023-12-28T09:51:59;7.17;;;4.43;;
20000;SDS011;10161;41.188;-8.642;2023-12-28T09:54:27;5.23;;;4.50;;
20000;SDS011;10161;41.188;-8.642;2023-12-28T09:56:54;6.07;;;5.00;;
20000;SDS011;10161;41.188;-8.642;2023-12-28T09:59:21;5.80;;;4.80;;
20000;SDS011;10161;41.188;-8.642;2023-12-28T10:01:49;5.70;;;5.07;;
20000;SDS011;10161;41.188;-8.642;2023-12-28T10:04:16;7.00;;;5.60;;
20000;SDS011;10161;41.188;-8.642;2023-12-28T10:06:43;6.17;;;5.53;;
20000;SDS011;10161;41.188;-8.642;2023-12-28T10:09:10;7.47;;;5.90;;
20000;SDS011;10161;41.188;-8.642;2023-12-28T10:11:39;5.10;;;4.60;;
20000;SDS011;10161;41.188;-8.642;2023-12-28T10:14:06;7.10;;;5.37;;
20000;SDS011;10161;41.188;-8.642;2023-12-28T10:16:33;6.73;;;5.87;;
20000;SDS011;10161;41.188;-8.642;2023-12-28T10:19:00;6.77;;;6.00;;
20000;SDS011;10161;41.188;-8.642;2023-12-28T10:21:27;6.53;;;5.80;;
20000;SDS011;10161;41.188;-8.642;2023-12-28T10:23:54;6.97;;;6.20;;
20000;SDS011;10161;41.188;-8.642;2023-12-28T10:26:21;7.77;;;6.40;;
20000;SDS011;10161;41.188;-8.642;2023-12-28T10:28:49;6.93;;;6.20;;
20000;SDS011;10161;41.188;-8.642;2023-12-28T10:31:16;8.87;;;6.80;;
20000;SDS011;10161;41.188;-8.642;2023-12-28T10:33:43;9.17;;;7.10;;
20000;SDS011;10161;41.188;-8.642;2023-12-28T10:36:10;7.80;;;7.00;;
20000;SDS011;10161;41.188;-8.642;2023-12-28T10:38:39;6.83;;;6.10;;
20000;SDS011;10161;41.188;-8.642;2023-12-28T10:41:07;7.63;;;6.80;;
20000;SDS011;10161;41.188;-8.642;2023-12-28T10:43:36;8.03;;;7.10;;
20000;SDS011;10161;41.188;-8.642;2023-12-28T10:46:10;8.17;;;7.10;;
20000;SDS011;10161;41.188;-8.642;2023-12-28T10:48:39;8.17;;;6.70;;
20000;SDS011;10161;41.188;-8.642;2023-12-28T10:51:08;8.43;;;7.50;;
20000;SDS011;10161;41.188;-8.642;2023-12-28T10:53:37;8.90;;;7.60;;
20000;SDS011;10161;41.188;-8.642;2023-12-28T10:56:09;11.07;;;8.00;;
20000;SDS011;10161;41.188;-8.642;2023-12-28T10:58:42;9.10;;;7.90;;
20000;SDS011;10161;41.188;-8.642;2023-12-28T11:01:16;10.80;;;8.00;;
20000;SDS011;10161;41.188;-8.642;2023-12-28T11:03:48;9.50;;;8.27;;
20000;SDS011;10161;41.188;-8.642;2023-12-28T11:06:19;11.63;;;8.87;;
20000;SDS011;10161;41.188;-8.642;2023-12-28T11:08:46;9.90;;;8.27;;
20000;SDS011;10161;41.188;-8.642;2023-12-28T11:11:16;12.07;;;10.33;;
20000;SDS011;10161;41.188;-8.642;2023-12-28T11:13:44;11.90;;;9.80;;
20000;SDS011;10161;41.188;-8.642;2023-12-28T11:16:11;10.53;;;8.63;;
20000;SDS011;10161;41.188;-8.642;2023-12-28T11:18:40;11.90;;;9.60;;
20000;SDS011;10161;41.188;-8.642;2023-12-28T11:21:07;10.13;;;8.77;;
20000;SDS011;10161;41.188;-8.642;2023-12-28T11:23:34;11.63;;;9.40;;
20000;SDS011;10161;41.188;-8.642;2023-12-28T11:26:01;10.90;;;9.40;;
20000;SDS011;10161;41.188;-8.642;2023-12-28T11:28:29;10.70;;;9.30;;
20000;SDS011;10161;41.188;-8.642;2023-12-28T11:30:56;11.87;;;9.30;;
20000;SDS011;10161;41.188;-8.642;2023-12-28T11:33:23;11.80;;;9.70;;
20000;SDS011;10161;41.188;-8.642;2023-12-28T11:35:52;12.10;;;9.87;;
20000;SDS011;10161;41.188;-8.642;2023-12-28T11:38:20;11.67;;;9.57;;
20000;SDS011;10161;41.188;-8.642;2023-12-28T11:40:47;12.93;;;10.40;;
20000;SDS011;10161;41.188;-8.642;2023-12-28T11:43:15;13.23;;;9.77;;
20000;SDS011;10161;41.188;-8.642;2023-12-28T11:45:48;13.40;;;10.67;;
20000;SDS011;10161;41.188;-8.642;2023-12-28T11:48:23;13.37;;;11.17;;
20000;SDS011;10161;41.188;-8.642;2023-12-28T11:50:54;13.00;;;10.90;;
20000;SDS011;10161;41.188;-8.642;2023-12-28T11:53:22;13.73;;;10.73;;
20000;SDS011;10161;41.188;-8.642;2023-12-28T11:55:50;12.97;;;11.57;;
20000;SDS011;10161;41.188;-8.642;2023-12-28T11:58:17;12.20;;;10.73;;
20000;SDS011;10161;41.188;-8.642;2023-12-28T12:00:43;13.70;;;10.90;;
20000;SDS011;10161;41.188;-8.642;2023-12-28T12:03:11;15.17;;;12.30;;
20000;SDS011;10161;41.188;-8.642;2023-12-28T12:05:38;12.70;;;10.63;;
20000;SDS011;10161;41.188;-8.642;2023-12-28T12:08:08;12.90;;;10.90;;
20000;SDS011;10161;41.188;-8.642;2023-12-28T12:10:38;14.60;;;11.87;;
20000;SDS011;10161;41.188;-8.642;2023-12-28T12:13:05;16.80;;;12.00;;
20000;SDS011;10161;41.188;-8.642;2023-12-28T12:15:32;15.80;;;12.50;;
20000;SDS011;10161;41.188;-8.642;2023-12-28T12:17:59;13.77;;;12.10;;
20000;SDS011;10161;41.188;-8.642;2023-12-28T12:20:27;12.37;;;10.80;;
20000;SDS011;10161;41.188;-8.642;2023-12-28T12:22:57;15.97;;;12.90;;
20000;SDS011;10161;41.188;-8.642;2023-12-28T12:25:26;14.80;;;11.27;;
20000;SDS011;10161;41.188;-8.642;2023-12-28T12:27:53;14.80;;;11.67;;
20000;SDS011;10161;41.188;-8.642;2023-12-28T12:30:20;14.63;;;11.50;;
20000;SDS011;10161;41.188;-8.642;2023-12-28T12:32:47;14.90;;;12.57;;
20000;SDS011;10161;41.188;-8.642;2023-12-28T12:35:15;16.70;;;12.47;;
20000;SDS011;10161;41.188;-8.642;2023-12-28T12:37:42;15.13;;;13.40;;
20000;SDS011;10161;41.188;-8.642;2023-12-28T12:40:11;15.53;;;13.30;;
20000;SDS011;10161;41.188;-8.642;2023-12-28T12:42:40;17.97;;;13.03;;
20000;SDS011;10161;41.188;-8.642;2023-12-28T12:45:08;15.20;;;12.23;;
20000;SDS011;10161;41.188;-8.642;2023-12-28T12:47:35;15.03;;;12.47;;
20000;SDS011;10161;41.188;-8.642;2023-12-28T12:50:02;16.77;;;12.43;;
20000;SDS011;10161;41.188;-8.642;2023-12-28T12:52:30;15.60;;;12.07;;
20000;SDS011;10161;41.188;-8.642;2023-12-28T12:54:57;14.70;;;12.77;;
20000;SDS011;10161;41.188;-8.642;2023-12-28T12:57:24;14.20;;;12.30;;
20000;SDS011;10161;41.188;-8.642;2023-12-28T12:59:53;15.10;;;12.67;;
20000;SDS011;10161;41.188;-8.642;2023-12-28T13:02:22;16.07;;;12.07;;
20000;SDS011;10161;41.188;-8.642;2023-12-28T13:04:51;15.33;;;12.50;;
20000;SDS011;10161;41.188;-8.642;2023-12-28T13:07:18;14.70;;;12.50;;
20000;SDS011;10161;41.188;-8.642;2023-12-28T13:09:45;17.43;;;13.07;;
20000;SDS011;10161;41.188;-8.642;2023-12-28T13:12:12;14.83;;;12.23;;
20000;SDS011;10161;41.188;-8.642;2023-12-28T13:14:39;13.73;;;11.80;;
20000;SDS011;10161;41.188;-8.642;2023-12-28T13:17:07;15.27;;;12.60;;
20000;SDS011;10161;41.188;-8.642;2023-12-28T13:19:35;16.70;;;13.17;;
20000;SDS011;10161;41.188;-8.642;2023-12-28T13:22:02;16.00;;;13.70;;
20000;SDS011;10161;41.188;-8.642;2023-12-28T13:24:30;16.73;;;13.37;;
20000;SDS011;10161;41.188;-8.642;2023-12-28T13:26:57;13.73;;;12.10;;
20000;SDS011;10161;41.188;-8.642;2023-12-28T13:29:23;15.40;;;12.40;;
20000;SDS011;10161;41.188;-8.642;2023-12-28T13:31:50;13.67;;;11.43;;
20000;SDS011;10161;41.188;-8.642;2023-12-28T13:34:19;14.27;;;12.13;;
20000;SDS011;10161;41.188;-8.642;2023-12-28T13:36:45;13.90;;;11.33;;
20000;SDS011;10161;41.188;-8.642;2023-12-28T13:39:13;13.10;;;10.80;;
20000;SDS011;10161;41.188;-8.642;2023-12-28T13:41:40;13.90;;;11.57;;
20000;SDS011;10161;41.188;-8.642;2023-12-28T13:44:07;16.60;;;13.73;;
20000;SDS011;10161;41.188;-8.642;2023-12-28T13:46:37;19.97;;;14.40;;
20000;SDS011;10161;41.188;-8.642;2023-12-28T13:49:04;17.73;;;14.00;;
20000;SDS011;10161;41.188;-8.642;2023-12-28T13:51:34;19.90;;;15.60;;
20000;SDS011;10161;41.188;-8.642;2023-12-28T13:54:01;20.93;;;15.13;;
20000;SDS011;10161;41.188;-8.642;2023-12-28T13:56:27;20.63;;;14.83;;
20000;SDS011;10161;41.188;-8.642;2023-12-28T13:58:54;21.33;;;15.30;;
20000;SDS011;10161;41.188;-8.642;2023-12-28T14:01:21;21.40;;;15.17;;
20000;SDS011;10161;41.188;-8.642;2023-12-28T14:03:48;19.20;;;14.43;;
20000;SDS011;10161;41.188;-8.642;2023-12-28T14:06:16;17.63;;;12.23;;
20000;SDS011;10161;41.188;-8.642;2023-12-28T14:08:45;17.13;;;13.10;;
20000;SDS011;10161;41.188;-8.642;2023-12-28T14:11:13;18.83;;;13.60;;
20000;SDS011;10161;41.188;-8.642;2023-12-28T14:13:40;20.00;;;13.13;;
20000;SDS011;10161;41.188;-8.642;2023-12-28T14:16:07;18.60;;;13.87;;
20000;SDS011;10161;41.188;-8.642;2023-12-28T14:18:34;19.37;;;13.53;;
20000;SDS011;10161;41.188;-8.642;2023-12-28T14:21:02;18.53;;;13.43;;
20000;SDS011;10161;41.188;-8.642;2023-12-28T14:23:30;16.37;;;12.97;;
20000;SDS011;10161;41.188;-8.642;2023-12-28T14:25:59;17.43;;;12.57;;
20000;SDS011;10161;41.188;-8.642;2023-12-28T14:28:27;16.67;;;13.13;;
20000;SDS011;10161;41.188;-8.642;2023-12-28T14:30:57;15.30;;;12.77;;